Time;durP1;ratioP1;P1;durP2;ratioP2;P2;SDS_P1;SDS_P2;PMS_P1;PMS_P2;Temp;Humidity;BMP_temperature;BMP_pressure;BME280_temperature;BME280_humidity;BME280_pressure;Samples;Min_cycle;Max_cycle;Signal;HPM_P1;HPM_P2
2024/04/04 00:01:41;;;;;;;1.73;0.90;;;10.90;99.90;;;;;;5034337;28;20624;-67
2024/04/04 00:04:07;;;;;;;3.40;1.47;;;10.90;99.90;;;;;;5034614;28;20194;-68
2024/04/04 00:06:34;;;;;;;2.90;1.00;;;10.90;99.90;;;;;;5033990;28;20208;-65
2024/04/04 00:08:59;;;;;;;4.33;1.47;;;10.90;99.90;;;;;;5034684;28;20594;-66
2024/04/04 00:11:25;;;;;;;8.83;1.13;;;10.90;99.90;;;;;;5034556;28;20520;-68
2024/04/04 00:13:51;;;;;;;4.33;1.20;;;10.80;99.90;;;;;;5034504;28;20633;-67
2024/04/04 00:16:16;;;;;;;5.00;1.20;;;10.80;99.90;;;;;;5034481;28;20186;-68
2024/04/04 00:18:42;;;;;;;1.60;1.10;;;10.80;99.90;;;;;;5034736;28;20181;-70
2024/04/04 00:21:08;;;;;;;2.67;1.00;;;10.80;99.90;;;;;;5034461;28;20237;-68
2024/04/04 00:23:34;;;;;;;3.47;1.03;;;10.80;99.90;;;;;;5066240;28;20191;-69
2024/04/04 00:26:00;;;;;;;5.77;1.20;;;10.90;99.90;;;;;;5033430;28;20436;-65
2024/04/04 00:28:27;;;;;;;4.10;1.20;;;10.90;99.90;;;;;;5033958;28;20201;-68
2024/04/04 00:30:53;;;;;;;1.77;0.77;;;10.80;99.90;;;;;;5034410;28;20580;-67
2024/04/04 00:33:18;;;;;;;3.30;0.90;;;10.80;99.90;;;;;;5034113;28;20417;-66
2024/04/04 00:35:44;;;;;;;3.00;1.20;;;10.80;99.90;;;;;;5033955;28;20216;-67
2024/04/04 00:38:10;;;;;;;3.00;0.97;;;10.80;99.90;;;;;;5034411;28;20174;-70
2024/04/04 00:40:39;;;;;;;8.03;1.20;;;10.80;99.90;;;;;;5034037;28;20222;-67
2024/04/04 00:43:04;;;;;;;3.73;0.90;;;10.80;99.90;;;;;;5034231;28;20190;-69
2024/04/04 00:45:31;;;;;;;3.50;0.90;;;10.90;99.90;;;;;;5034088;28;20434;-69
2024/04/04 00:47:58;;;;;;;2.77;1.27;;;10.90;99.90;;;;;;5034302;28;20240;-69
2024/04/04 00:50:25;;;;;;;2.03;1.03;;;10.90;99.90;;;;;;5034140;28;20456;-69
2024/04/04 00:52:51;;;;;;;3.43;1.07;;;10.90;99.90;;;;;;5034167;28;20426;-70
2024/04/04 00:55:17;;;;;;;3.67;1.40;;;10.90;99.90;;;;;;5033996;28;20438;-69
2024/04/04 00:57:46;;;;;;;3.80;1.80;;;10.90;99.90;;;;;;5034109;28;20447;-68
2024/04/04 01:00:13;;;;;;;2.43;1.10;;;10.80;99.90;;;;;;5038131;28;20997;-69
2024/04/04 01:02:39;;;;;;;3.67;1.10;;;10.80;99.90;;;;;;5037578;28;20432;-68
2024/04/04 01:05:05;;;;;;;5.20;1.63;;;10.80;99.90;;;;;;5038347;28;20417;-67
2024/04/04 01:07:33;;;;;;;3.00;1.07;;;10.80;99.90;;;;;;5037184;28;20542;-70
2024/04/04 01:10:04;;;;;;;5.33;1.67;;;10.90;99.90;;;;;;5037546;28;20481;-68
2024/04/04 01:12:30;;;;;;;3.60;1.20;;;10.80;99.90;;;;;;5037109;28;20439;-70
2024/04/04 01:14:55;;;;;;;3.50;1.47;;;10.80;99.90;;;;;;5038042;28;20459;-67
2024/04/04 01:17:21;;;;;;;2.07;1.10;;;10.80;99.90;;;;;;5037183;28;20808;-68
2024/04/04 01:19:47;;;;;;;4.20;1.17;;;10.90;99.90;;;;;;5042883;28;20205;-66
2024/04/04 01:22:13;;;;;;;2.00;1.17;;;10.90;99.90;;;;;;5037651;28;20208;-70
2024/04/04 01:24:38;;;;;;;4.73;1.20;;;10.90;99.90;;;;;;5037269;28;20193;-67
2024/04/04 01:27:05;;;;;;;3.50;1.40;;;10.90;99.90;;;;;;5037975;28;21034;-70
2024/04/04 01:29:30;;;;;;;4.57;1.20;;;10.90;99.90;;;;;;5036767;28;20237;-70
2024/04/04 01:31:56;;;;;;;1.57;0.80;;;10.90;99.90;;;;;;5069710;28;20517;-68
2024/04/04 01:34:22;;;;;;;2.23;1.50;;;10.90;99.90;;;;;;5036990;28;20177;-68
2024/04/04 01:36:48;;;;;;;4.27;1.70;;;10.90;99.90;;;;;;5037265;28;20212;-68
2024/04/04 01:39:14;;;;;;;4.43;1.30;;;10.90;99.90;;;;;;5037454;28;20190;-67
2024/04/04 01:41:43;;;;;;;6.20;1.27;;;10.90;99.90;;;;;;5036840;28;20910;-68
2024/04/04 01:44:09;;;;;;;5.00;1.20;;;11.00;99.90;;;;;;5037094;28;20884;-69
2024/04/04 01:46:34;;;;;;;1.97;1.30;;;11.00;99.90;;;;;;5036733;28;20516;-70
2024/04/04 01:49:00;;;;;;;4.73;1.23;;;11.00;99.90;;;;;;5037113;28;20221;-69
2024/04/04 01:51:26;;;;;;;2.70;1.20;;;11.00;99.90;;;;;;5036661;28;20220;-69
2024/04/04 01:53:51;;;;;;;2.20;1.07;;;11.00;99.90;;;;;;5037129;28;20183;-68
2024/04/04 01:56:17;;;;;;;1.90;1.17;;;11.00;99.90;;;;;;5037173;28;20584;-67
2024/04/04 01:58:43;;;;;;;3.43;1.20;;;11.00;99.90;;;;;;5036936;28;20185;-69
2024/04/04 02:01:08;;;;;;;5.27;1.13;;;11.00;99.90;;;;;;5036619;28;20218;-69
2024/04/04 02:03:34;;;;;;;2.33;1.10;;;11.00;99.90;;;;;;5036544;28;20661;-70
2024/04/04 02:06:00;;;;;;;2.80;1.10;;;11.10;99.90;;;;;;5036884;28;20210;-68
2024/04/04 02:08:25;;;;;;;4.23;2.30;;;11.00;99.90;;;;;;5036213;28;20317;-68
2024/04/04 02:10:52;;;;;;;2.60;1.00;;;11.10;99.90;;;;;;5036787;28;20237;-67
2024/04/04 02:13:18;;;;;;;3.90;1.40;;;11.00;99.90;;;;;;5034881;28;20518;-67
2024/04/04 02:15:44;;;;;;;2.17;1.10;;;11.10;99.90;;;;;;5037051;28;20413;-68
2024/04/04 02:18:11;;;;;;;5.03;2.43;;;11.10;99.90;;;;;;5036385;28;20190;-70
2024/04/04 02:20:37;;;;;;;4.50;3.10;;;11.10;99.90;;;;;;5035856;28;20218;-68
2024/04/04 02:23:02;;;;;;;3.77;2.53;;;11.10;99.90;;;;;;5036981;28;20432;-70
2024/04/04 02:25:29;;;;;;;6.33;2.30;;;11.10;99.90;;;;;;5036045;28;20225;-69
2024/04/04 02:27:54;;;;;;;6.37;2.13;;;11.10;99.90;;;;;;5036770;28;20452;-67
2024/04/04 02:30:20;;;;;;;2.50;1.50;;;11.10;99.90;;;;;;5067545;28;20185;-70
2024/04/04 02:32:48;;;;;;;2.10;1.13;;;11.10;99.90;;;;;;5036060;28;20197;-70
2024/04/04 02:35:14;;;;;;;1.73;1.30;;;11.00;99.90;;;;;;5036128;28;21021;-67
2024/04/04 02:37:39;;;;;;;2.60;1.47;;;11.00;99.90;;;;;;5036217;28;20428;-69
2024/04/04 02:40:06;;;;;;;1.50;1.10;;;11.00;99.90;;;;;;5036770;28;20218;-67
2024/04/04 02:42:31;;;;;;;2.60;1.07;;;11.00;99.90;;;;;;5035626;28;20318;-68
2024/04/04 02:44:57;;;;;;;1.07;0.90;;;11.00;99.90;;;;;;5036275;28;20507;-68
2024/04/04 02:47:23;;;;;;;2.10;1.10;;;11.00;99.90;;;;;;5035445;28;20182;-67
2024/04/04 02:49:52;;;;;;;3.50;1.33;;;11.10;99.90;;;;;;5036499;28;20866;-70
2024/04/04 02:52:17;;;;;;;2.30;0.87;;;11.10;99.90;;;;;;5035702;28;20453;-67
2024/04/04 02:54:43;;;;;;;1.50;1.00;;;11.20;99.90;;;;;;5036356;28;20443;-67
2024/04/04 02:57:08;;;;;;;5.27;1.40;;;11.10;99.90;;;;;;5036081;28;20194;-67
2024/04/04 02:59:34;;;;;;;2.40;1.10;;;11.10;99.90;;;;;;5035398;28;20228;-67
2024/04/04 03:02:00;;;;;;;2.60;1.50;;;11.20;99.90;;;;;;5036215;28;20215;-69
2024/04/04 03:04:25;;;;;;;1.83;1.00;;;11.20;99.90;;;;;;5035116;28;20352;-67
2024/04/04 03:06:51;;;;;;;4.67;1.30;;;11.20;99.90;;;;;;5034432;28;20226;-69
2024/04/04 03:09:17;;;;;;;1.60;0.87;;;11.20;99.90;;;;;;5035267;28;20190;-68
2024/04/04 03:11:43;;;;;;;3.70;1.33;;;11.30;99.90;;;;;;5036084;28;20938;-66
2024/04/04 03:14:08;;;;;;;2.27;1.00;;;11.30;99.90;;;;;;5035632;28;20988;-67
2024/04/04 03:16:34;;;;;;;3.03;0.93;;;11.30;99.90;;;;;;5035056;28;20217;-68
2024/04/04 03:19:00;;;;;;;2.00;1.10;;;11.30;99.90;;;;;;5035678;28;20201;-68
2024/04/04 03:21:25;;;;;;;4.80;1.10;;;11.30;99.90;;;;;;5034656;28;20217;-67
2024/04/04 03:23:51;;;;;;;2.87;1.20;;;11.30;99.90;;;;;;5035529;28;20274;-67
2024/04/04 03:26:16;;;;;;;2.50;1.30;;;11.30;99.90;;;;;;5034740;28;20182;-66
2024/04/04 03:28:42;;;;;;;4.03;1.40;;;11.30;99.90;;;;;;5035697;28;20679;-68
2024/04/04 03:31:08;;;;;;;1.60;0.80;;;11.30;99.90;;;;;;5034997;28;20192;-65
2024/04/04 03:33:34;;;;;;;1.93;1.27;;;11.30;99.90;;;;;;5034780;28;20243;-67
2024/04/04 03:36:03;;;;;;;1.90;1.30;;;11.30;99.90;;;;;;5035359;28;20448;-67
2024/04/04 03:38:29;;;;;;;2.40;1.03;;;11.30;99.90;;;;;;5035034;28;20269;-70
2024/04/04 03:40:55;;;;;;;3.03;1.10;;;11.30;99.90;;;;;;5035199;28;20489;-68
2024/04/04 03:43:22;;;;;;;2.20;1.20;;;11.30;99.90;;;;;;5034421;28;20185;-66
2024/04/04 03:45:48;;;;;;;1.40;1.23;;;11.30;99.90;;;;;;5034742;28;20431;-65
2024/04/04 03:48:17;;;;;;;2.00;1.30;;;11.30;99.90;;;;;;5034577;28;20841;-69
2024/04/04 03:50:43;;;;;;;1.83;1.17;;;11.30;99.90;;;;;;5035213;28;20208;-68
2024/04/04 03:53:09;;;;;;;3.97;1.60;;;11.30;99.90;;;;;;5035320;28;20425;-69
2024/04/04 03:55:35;;;;;;;2.47;1.17;;;11.30;99.90;;;;;;5034525;28;20596;-68
2024/04/04 03:58:00;;;;;;;2.33;1.57;;;11.20;99.90;;;;;;5034851;28;20255;-70
2024/04/04 04:00:26;;;;;;;2.33;1.10;;;11.20;99.90;;;;;;5034004;28;20770;-69
2024/04/04 04:02:51;;;;;;;2.20;1.13;;;11.20;99.90;;;;;;5035219;28;20193;-67
2024/04/04 04:05:17;;;;;;;2.13;1.40;;;11.20;99.90;;;;;;5034108;28;20233;-68
2024/04/04 04:07:43;;;;;;;2.50;1.17;;;11.10;99.90;;;;;;5034963;28;20178;-68
2024/04/04 04:10:09;;;;;;;2.30;1.30;;;11.20;99.90;;;;;;5034680;28;20186;-68
2024/04/04 04:12:36;;;;;;;2.60;1.57;;;11.20;99.90;;;;;;5066613;28;20664;-68
2024/04/04 04:15:02;;;;;;;1.40;1.20;;;11.20;99.90;;;;;;5034112;28;20428;-67
2024/04/04 04:17:27;;;;;;;1.80;1.50;;;11.10;99.90;;;;;;5034495;28;20445;-68
2024/04/04 04:19:53;;;;;;;2.10;1.67;;;11.20;99.90;;;;;;5035111;28;20629;-70
2024/04/04 04:22:19;;;;;;;1.30;1.20;;;11.10;99.90;;;;;;5033864;28;20647;-68
2024/04/04 04:24:44;;;;;;;2.97;1.80;;;11.10;99.90;;;;;;5035480;28;20330;-69
2024/04/04 04:27:10;;;;;;;1.50;1.40;;;11.10;99.90;;;;;;5033888;28;20190;-70
2024/04/04 04:29:36;;;;;;;4.13;1.80;;;11.10;99.90;;;;;;5034750;28;20868;-70
2024/04/04 04:32:02;;;;;;;1.80;1.70;;;11.10;99.90;;;;;;5035430;28;20538;-68
2024/04/04 04:34:27;;;;;;;3.13;2.00;;;11.10;99.90;;;;;;5038469;28;20186;-68
2024/04/04 04:37:00;;;;;;;4.10;1.63;;;11.10;99.90;;;;;;5038598;28;20186;-70
2024/04/04 04:39:29;;;;;;;1.73;1.60;;;11.20;99.90;;;;;;5037800;28;20635;-66
2024/04/04 04:41:56;;;;;;;2.03;1.70;;;11.10;99.90;;;;;;5039324;28;20425;-68
2024/04/04 04:44:21;;;;;;;2.37;2.10;;;11.10;99.90;;;;;;5036431;28;20564;-65
2024/04/04 04:46:47;;;;;;;1.73;1.63;;;11.20;99.90;;;;;;5042609;28;20512;-68
2024/04/04 04:49:13;;;;;;;2.40;1.83;;;11.20;99.90;;;;;;5037618;28;20205;-67
2024/04/04 04:51:38;;;;;;;3.13;2.23;;;11.20;99.90;;;;;;5037873;28;20276;-70
2024/04/04 04:54:06;;;;;;;4.13;2.00;;;11.20;99.90;;;;;;5038114;28;20228;-67
2024/04/04 04:56:32;;;;;;;2.23;1.70;;;11.20;99.90;;;;;;5038417;28;20185;-67
2024/04/04 04:58:58;;;;;;;2.10;1.93;;;11.20;99.90;;;;;;5038269;28;20432;-69
2024/04/04 05:01:24;;;;;;;3.70;2.10;;;11.20;99.90;;;;;;5037222;28;20596;-69
2024/04/04 05:03:53;;;;;;;3.27;1.97;;;11.20;99.90;;;;;;5038237;28;20432;-69
2024/04/04 05:06:18;;;;;;;2.90;2.37;;;11.20;99.90;;;;;;5036905;28;20854;-67
2024/04/04 05:08:44;;;;;;;3.30;2.20;;;11.20;99.90;;;;;;5037972;28;20424;-69
2024/04/04 05:11:10;;;;;;;2.50;2.23;;;11.20;99.90;;;;;;5037267;28;20186;-67
2024/04/04 05:13:36;;;;;;;2.30;1.90;;;11.20;99.90;;;;;;5038018;28;20285;-66
2024/04/04 05:16:02;;;;;;;2.40;1.73;;;11.20;99.90;;;;;;5037693;28;20515;-66
2024/04/04 05:18:29;;;;;;;4.63;2.20;;;11.20;99.90;;;;;;5037263;28;20189;-66
2024/04/04 05:21:01;;;;;;;2.20;1.93;;;11.20;99.90;;;;;;5037427;28;20469;-64
2024/04/04 05:23:26;;;;;;;4.10;2.50;;;11.20;99.90;;;;;;5037505;28;20785;-67
2024/04/04 05:25:52;;;;;;;4.87;2.10;;;11.20;99.90;;;;;;5037737;28;20433;-65
2024/04/04 05:28:21;;;;;;;2.57;1.57;;;11.20;99.90;;;;;;5036946;28;20185;-65
2024/04/04 05:30:47;;;;;;;2.43;1.87;;;11.20;99.90;;;;;;5037089;28;20439;-67
2024/04/04 05:33:12;;;;;;;4.90;2.23;;;11.20;99.90;;;;;;5036546;28;20429;-70
2024/04/04 05:35:38;;;;;;;2.50;1.67;;;11.30;99.90;;;;;;5037920;28;20186;-67
2024/04/04 05:38:04;;;;;;;3.17;2.00;;;11.30;99.90;;;;;;5037238;28;20664;-68
2024/04/04 05:40:29;;;;;;;2.77;2.57;;;11.30;99.90;;;;;;5037751;28;20276;-69
2024/04/04 05:42:55;;;;;;;4.00;1.60;;;11.30;99.90;;;;;;5037354;28;20262;-69
2024/04/04 05:45:21;;;;;;;4.30;1.57;;;11.40;99.90;;;;;;5035980;28;20192;-69
2024/04/04 05:47:47;;;;;;;1.67;1.33;;;11.40;99.90;;;;;;5037679;28;21160;-70
2024/04/04 05:50:13;;;;;;;1.97;1.47;;;11.40;99.90;;;;;;5035822;28;20806;-68
2024/04/04 05:52:39;;;;;;;3.37;1.50;;;11.40;99.90;;;;;;5037907;28;20193;-70
2024/04/04 05:55:10;;;;;;;1.87;1.67;;;11.40;99.90;;;;;;5036804;28;20447;-69
2024/04/04 05:57:35;;;;;;;2.60;1.10;;;11.50;99.90;;;;;;5036738;28;20241;-69
2024/04/04 06:00:01;;;;;;;2.23;1.53;;;11.50;99.90;;;;;;5037059;28;20475;-66
2024/04/04 06:02:27;;;;;;;2.03;1.37;;;11.50;99.90;;;;;;5036775;28;20191;-67
2024/04/04 06:04:53;;;;;;;2.50;1.40;;;11.50;99.90;;;;;;5037121;28;20429;-69
2024/04/04 06:07:20;;;;;;;1.53;1.20;;;11.50;99.90;;;;;;5035631;28;20292;-68
2024/04/04 06:09:46;;;;;;;1.83;1.47;;;11.50;99.90;;;;;;5036672;28;20190;-69
2024/04/04 06:12:11;;;;;;;4.53;1.80;;;11.50;99.90;;;;;;5036168;28;20428;-68
2024/04/04 06:14:40;;;;;;;3.00;1.70;;;11.50;99.90;;;;;;5037915;28;20412;-68
2024/04/04 06:17:06;;;;;;;5.07;1.50;;;11.50;99.90;;;;;;5036299;28;20183;-65
2024/04/04 06:19:31;;;;;;;4.10;1.80;;;11.60;99.90;;;;;;5033971;28;20455;-70
2024/04/04 06:21:57;;;;;;;4.03;1.37;;;11.60;99.90;;;;;;5036133;28;20193;-70
2024/04/04 06:24:23;;;;;;;2.10;1.57;;;11.60;99.90;;;;;;5035390;28;20191;-68
2024/04/04 06:26:49;;;;;;;1.47;1.37;;;11.60;99.90;;;;;;5036466;28;20182;-70
2024/04/04 06:29:19;;;;;;;3.33;1.70;;;11.60;99.90;;;;;;5034202;28;20472;-73
2024/04/04 06:31:45;;;;;;;2.03;1.07;;;11.60;99.90;;;;;;5036006;28;20508;-71
2024/04/04 06:34:12;;;;;;;4.90;1.60;;;11.60;99.90;;;;;;5035615;28;20460;-71
2024/04/04 06:36:37;;;;;;;1.90;1.00;;;11.70;99.90;;;;;;5036386;28;21363;-70
2024/04/04 06:39:04;;;;;;;1.80;1.00;;;11.70;99.90;;;;;;5036153;28;20424;-75
2024/04/04 06:41:33;;;;;;;2.80;1.37;;;11.70;99.90;;;;;;5070527;28;20220;-70
2024/04/04 06:43:58;;;;;;;2.17;1.10;;;11.70;99.90;;;;;;5038480;28;20819;-72
2024/04/04 06:46:24;;;;;;;2.93;1.33;;;11.80;99.90;;;;;;5038565;28;20501;-70
2024/04/04 06:48:50;;;;;;;1.70;1.40;;;11.90;99.90;;;;;;5038398;28;20222;-70
2024/04/04 06:51:16;;;;;;;3.33;1.50;;;11.90;99.90;;;;;;5038142;28;20192;-70
2024/04/04 06:53:41;;;;;;;2.97;1.17;;;11.90;99.90;;;;;;5037827;28;20175;-70
2024/04/04 06:56:07;;;;;;;4.70;1.20;;;11.90;99.90;;;;;;5037966;28;20622;-71
2024/04/04 06:58:33;;;;;;;1.57;1.00;;;11.90;99.90;;;;;;5037499;28;20560;-73
2024/04/04 07:00:59;;;;;;;3.90;1.80;;;11.90;99.90;;;;;;5035768;28;20229;-72
2024/04/04 07:03:25;;;;;;;3.10;1.10;;;11.90;99.90;;;;;;5036628;28;20491;-73
2024/04/04 07:05:51;;;;;;;1.33;1.00;;;11.90;99.90;;;;;;5036493;28;20852;-71
2024/04/04 07:08:20;;;;;;;4.23;1.10;;;12.00;99.90;;;;;;5035281;28;20274;-70
2024/04/04 07:10:46;;;;;;;3.00;1.77;;;12.00;99.90;;;;;;5067873;28;20452;-73
2024/04/04 07:13:16;;;;;;;3.37;1.23;;;12.00;99.90;;;;;;5035293;28;20925;-71
2024/04/04 07:15:42;;;;;;;3.43;1.50;;;12.00;99.90;;;;;;5036274;28;20934;-74
2024/04/04 07:18:10;;;;;;;2.57;1.10;;;12.10;99.90;;;;;;5034172;28;20468;-72
2024/04/04 07:20:37;;;;;;;1.80;1.03;;;12.10;99.90;;;;;;5035091;28;20708;-72
2024/04/04 07:23:03;;;;;;;2.30;1.40;;;12.10;99.90;;;;;;5034118;28;20516;-74
2024/04/04 07:25:30;;;;;;;1.40;1.17;;;12.10;99.90;;;;;;5035496;28;20428;-72
2024/04/04 07:27:56;;;;;;;2.13;0.90;;;12.10;99.90;;;;;;5034755;28;20842;-72
2024/04/04 07:30:22;;;;;;;2.20;1.10;;;12.20;99.90;;;;;;5034910;28;20459;-74
2024/04/04 07:32:47;;;;;;;1.80;1.03;;;12.20;99.90;;;;;;5035296;28;20465;-72
2024/04/04 07:35:14;;;;;;;2.40;1.10;;;12.20;99.90;;;;;;5034853;28;20193;-73
2024/04/04 07:37:40;;;;;;;1.10;0.70;;;12.20;99.90;;;;;;5034392;28;20190;-66
2024/04/04 07:40:07;;;;;;;2.10;0.93;;;12.30;99.90;;;;;;5034055;28;20472;-72
2024/04/04 07:42:33;;;;;;;1.63;0.70;;;12.20;99.90;;;;;;5066925;28;20204;-70
2024/04/04 07:44:59;;;;;;;3.13;0.90;;;12.20;99.90;;;;;;5034866;28;20432;-67
2024/04/04 07:47:25;;;;;;;2.03;0.90;;;12.30;99.90;;;;;;5034932;28;20540;-70
2024/04/04 07:49:50;;;;;;;0.90;0.70;;;12.30;99.90;;;;;;5033790;28;20567;-75
2024/04/04 07:52:16;;;;;;;1.03;0.60;;;12.30;99.90;;;;;;5033151;28;20668;-73
2024/04/04 07:54:44;;;;;;;1.07;0.87;;;12.30;99.90;;;;;;5033792;28;20193;-73
2024/04/04 07:57:10;;;;;;;1.40;0.57;;;12.30;99.90;;;;;;5031785;28;20189;-70
2024/04/04 07:59:38;;;;;;;1.27;0.70;;;12.30;99.90;;;;;;5033241;28;20503;-72
2024/04/04 08:02:05;;;;;;;0.90;0.50;;;12.30;99.90;;;;;;5032122;28;20429;-71
2024/04/04 08:04:31;;;;;;;1.53;0.80;;;12.30;99.90;;;;;;5033562;28;20436;-70
2024/04/04 08:06:57;;;;;;;0.97;0.77;;;12.30;99.90;;;;;;5064487;28;20485;-71
2024/04/04 08:09:23;;;;;;;0.77;0.73;;;12.30;99.90;;;;;;5033808;28;20832;-70
2024/04/04 08:11:52;;;;;;;1.37;0.83;;;12.30;99.90;;;;;;5034650;28;20178;-71
2024/04/04 08:14:18;;;;;;;0.73;0.70;;;12.30;99.90;;;;;;5034381;28;20511;-73
2024/04/04 08:16:44;;;;;;;1.00;0.80;;;12.30;99.90;;;;;;5050740;28;20436;-70
2024/04/04 08:19:09;;;;;;;1.33;0.77;;;12.30;99.90;;;;;;5033236;28;20200;-70
2024/04/04 08:21:35;;;;;;;1.03;0.90;;;12.30;99.90;;;;;;5034564;28;20842;-71
2024/04/04 08:24:01;;;;;;;1.40;1.00;;;12.30;99.90;;;;;;5033700;28;20681;-70
2024/04/04 08:26:26;;;;;;;1.00;0.90;;;12.30;99.90;;;;;;5034658;28;20187;-70
2024/04/04 08:28:52;;;;;;;1.57;0.90;;;12.30;99.90;;;;;;5034468;28;20186;-73
2024/04/04 08:31:18;;;;;;;1.00;0.90;;;12.30;99.90;;;;;;5033773;28;20265;-70
2024/04/04 08:33:43;;;;;;;1.60;1.50;;;12.30;99.90;;;;;;5034609;28;20265;-73
2024/04/04 08:36:09;;;;;;;1.87;0.83;;;12.30;99.90;;;;;;5033307;28;20185;-70
2024/04/04 08:38:35;;;;;;;1.37;0.90;;;12.30;99.90;;;;;;5034088;28;20226;-70
2024/04/04 08:41:09;;;;;;;1.20;1.10;;;12.20;99.90;;;;;;5032848;28;20217;-74
2024/04/04 08:43:38;;;;;;;2.80;0.80;;;12.30;99.90;;;;;;5033910;28;20197;-70
2024/04/04 08:46:07;;;;;;;1.40;0.90;;;12.20;99.90;;;;;;5033406;28;20459;-71
2024/04/04 08:48:34;;;;;;;1.23;0.90;;;12.20;99.90;;;;;;5034250;28;20443;-70
2024/04/04 08:51:00;;;;;;;0.97;0.70;;;12.30;99.90;;;;;;5065343;28;20969;-70
2024/04/04 08:53:27;;;;;;;1.23;0.80;;;12.20;99.90;;;;;;5034472;28;20473;-72
2024/04/04 08:55:54;;;;;;;1.10;0.70;;;12.20;99.90;;;;;;5033924;28;20445;-73
2024/04/04 08:58:22;;;;;;;2.73;0.90;;;12.30;99.90;;;;;;5032932;28;20486;-70
2024/04/04 09:00:49;;;;;;;0.70;0.60;;;12.30;99.90;;;;;;5033892;28;20479;-70
2024/04/04 09:03:15;;;;;;;0.60;0.57;;;12.30;99.90;;;;;;5033654;28;20440;-71
2024/04/04 09:05:52;;;;;;;0.80;0.70;;;12.30;99.90;;;;;;5034207;28;20462;-74
2024/04/04 09:08:17;;;;;;;0.97;0.50;;;12.30;99.90;;;;;;5033227;28;20436;-71
2024/04/04 09:10:45;;;;;;;0.90;0.67;;;12.40;99.90;;;;;;5034268;28;20432;-71
2024/04/04 09:13:12;;;;;;;2.00;0.73;;;12.40;99.90;;;;;;5033159;28;20193;-71
2024/04/04 09:15:39;;;;;;;1.57;0.90;;;12.40;99.90;;;;;;5034095;28;20429;-74
2024/04/04 09:18:06;;;;;;;1.23;0.63;;;12.50;99.90;;;;;;5032731;28;20523;-71
2024/04/04 09:20:33;;;;;;;2.77;1.13;;;12.50;99.90;;;;;;5037041;28;20884;-71
2024/04/04 09:23:01;;;;;;;0.73;0.60;;;12.50;99.90;;;;;;5036890;28;21016;-70
2024/04/04 09:25:30;;;;;;;2.33;0.77;;;12.50;99.90;;;;;;5037277;28;20969;-73
2024/04/04 09:27:57;;;;;;;0.70;0.50;;;12.60;99.90;;;;;;5037069;28;20494;-70
2024/04/04 09:30:26;;;;;;;3.03;0.83;;;12.60;99.90;;;;;;5037892;28;20432;-74
2024/04/04 09:32:52;;;;;;;1.50;0.47;;;12.60;99.90;;;;;;5037166;28;20421;-72
2024/04/04 09:35:19;;;;;;;0.70;0.60;;;12.60;99.90;;;;;;5036742;28;20769;-70
2024/04/04 09:37:49;;;;;;;1.33;0.50;;;12.70;99.90;;;;;;5037058;28;20438;-71
2024/04/04 09:40:16;;;;;;;2.10;0.60;;;12.70;99.90;;;;;;5036517;28;20465;-72
2024/04/04 09:42:44;;;;;;;0.60;0.37;;;12.70;99.90;;;;;;5037121;28;20919;-71
2024/04/04 09:45:11;;;;;;;1.20;0.50;;;12.80;99.90;;;;;;5036163;28;20424;-73
2024/04/04 09:47:42;;;;;;;1.37;0.70;;;12.80;99.90;;;;;;5036985;28;20435;-71
2024/04/04 09:50:09;;;;;;;0.70;0.60;;;12.80;99.90;;;;;;5035929;28;20431;-69
2024/04/04 09:52:37;;;;;;;1.63;0.60;;;12.80;99.90;;;;;;5036826;28;20436;-74
2024/04/04 09:55:08;;;;;;;2.10;0.70;;;12.70;99.90;;;;;;5035603;28;21112;-73
2024/04/04 09:57:38;;;;;;;2.40;0.70;;;12.70;99.90;;;;;;5037196;28;20507;-73
2024/04/04 10:00:22;;;;;;;1.03;0.70;;;12.70;99.90;;;;;;5068339;28;20895;-69
2024/04/04 10:02:48;;;;;;;1.30;0.70;;;12.80;99.90;;;;;;5036787;28;20432;-73
2024/04/04 10:05:22;;;;;;;1.00;0.60;;;12.90;99.90;;;;;;5036206;28;20435;-73
2024/04/04 10:07:48;;;;;;;1.67;0.60;;;12.90;99.90;;;;;;5035620;28;20289;-70
2024/04/04 10:10:21;;;;;;;1.03;0.60;;;13.00;99.90;;;;;;5036590;28;20451;-71
2024/04/04 10:12:51;;;;;;;0.83;0.50;;;13.20;99.90;;;;;;5036715;28;20452;-73
2024/04/04 10:15:19;;;;;;;1.73;0.60;;;13.30;99.90;;;;;;5034748;28;20440;-72
2024/04/04 10:17:48;;;;;;;2.93;0.93;;;13.30;99.90;;;;;;5034385;28;20424;-74
2024/04/04 10:20:17;;;;;;;1.83;0.80;;;13.30;99.90;;;;;;5036364;28;20468;-69
2024/04/04 10:22:43;;;;;;;0.67;0.40;;;13.30;99.90;;;;;;5036052;28;20435;-71
2024/04/04 10:25:08;;;;;;;2.20;0.87;;;13.20;99.90;;;;;;5035759;28;20499;-68
2024/04/04 10:27:34;;;;;;;1.40;0.50;;;13.20;99.90;;;;;;5034125;28;20436;-70
2024/04/04 10:30:00;;;;;;;1.33;0.60;;;13.20;99.90;;;;;;5035470;28;20189;-70
2024/04/04 10:32:29;;;;;;;0.80;0.60;;;13.20;99.90;;;;;;5036452;28;20186;-70
2024/04/04 10:35:03;;;;;;;3.60;0.87;;;13.20;99.90;;;;;;5035338;28;20447;-73
2024/04/04 10:37:29;;;;;;;1.27;0.87;;;13.20;99.90;;;;;;5036555;28;20421;-72
2024/04/04 10:39:56;;;;;;;1.93;0.80;;;13.20;99.90;;;;;;5035414;28;20835;-74
2024/04/04 10:42:22;;;;;;;1.30;0.70;;;13.20;99.90;;;;;;5067687;28;20420;-68
2024/04/04 10:44:54;;;;;;;1.10;0.77;;;13.20;99.90;;;;;;5034374;28;20437;-70
2024/04/04 10:47:24;;;;;;;1.50;1.13;;;13.20;99.90;;;;;;5035531;28;20428;-73
2024/04/04 10:49:50;;;;;;;2.20;1.07;;;13.30;99.90;;;;;;5034644;28;20428;-69
2024/04/04 10:52:17;;;;;;;1.13;0.70;;;13.30;99.90;;;;;;5034916;28;20919;-71
2024/04/04 10:54:43;;;;;;;1.07;0.77;;;13.30;99.90;;;;;;5035773;28;20189;-75
2024/04/04 10:57:09;;;;;;;1.90;1.00;;;13.40;99.90;;;;;;5035374;28;21076;-71
2024/04/04 10:59:35;;;;;;;3.03;1.10;;;13.40;99.90;;;;;;5035679;28;20425;-72
2024/04/04 11:02:04;;;;;;;3.80;0.90;;;13.40;99.90;;;;;;5035439;28;20339;-71
2024/04/04 11:04:32;;;;;;;3.83;1.10;;;13.40;99.90;;;;;;5035654;28;20653;-67
2024/04/04 11:06:58;;;;;;;3.07;0.70;;;13.50;99.90;;;;;;5034709;28;21250;-71
2024/04/04 11:09:26;;;;;;;1.80;1.30;;;13.50;99.90;;;;;;5035317;28;20927;-70
2024/04/04 11:11:55;;;;;;;4.87;1.30;;;13.50;99.90;;;;;;5034909;28;21081;-71
2024/04/04 11:14:23;;;;;;;2.00;0.90;;;13.60;99.90;;;;;;5035153;28;20870;-69
2024/04/04 11:16:54;;;;;;;1.27;1.00;;;13.70;99.90;;;;;;5035024;28;20440;-70
2024/04/04 11:19:20;;;;;;;1.23;0.90;;;13.80;99.90;;;;;;5035652;28;20440;-72
2024/04/04 11:21:50;;;;;;;2.90;0.90;;;13.80;99.90;;;;;;5034773;28;20464;-72
2024/04/04 11:24:17;;;;;;;0.80;0.80;;;13.80;99.90;;;;;;5035761;28;20494;-72
2024/04/04 11:26:43;;;;;;;2.97;0.80;;;13.80;99.90;;;;;;5034951;28;21216;-71
2024/04/04 11:29:09;;;;;;;3.27;1.03;;;13.90;99.90;;;;;;5035079;28;20490;-73
2024/04/04 11:31:35;;;;;;;2.40;0.97;;;13.90;99.90;;;;;;5035569;28;20189;-70
2024/04/04 11:34:00;;;;;;;4.20;0.90;;;13.90;99.90;;;;;;5034868;28;20498;-71
2024/04/04 11:36:26;;;;;;;2.50;1.50;;;13.80;99.90;;;;;;5034843;28;20522;-71
2024/04/04 11:38:52;;;;;;;2.77;0.70;;;13.80;99.90;;;;;;5034348;28;20556;-71
2024/04/04 11:41:18;;;;;;;2.53;1.30;;;13.80;99.90;;;;;;5034667;28;20222;-75
2024/04/04 11:43:43;;;;;;;3.20;1.67;;;13.90;99.90;;;;;;5034852;28;20185;-73
2024/04/04 11:46:12;;;;;;;2.63;1.00;;;13.80;99.90;;;;;;5035021;28;20259;-74
2024/04/04 11:48:41;;;;;;;1.10;0.70;;;13.80;99.90;;;;;;5034124;28;20908;-74
2024/04/04 11:51:09;;;;;;;2.30;1.00;;;13.80;99.90;;;;;;5034945;28;20465;-71
2024/04/04 11:53:34;;;;;;;2.77;0.93;;;13.80;99.90;;;;;;5034993;28;20459;-71
2024/04/04 11:56:00;;;;;;;3.67;1.10;;;13.80;99.90;;;;;;5033154;28;20918;-73
2024/04/04 11:58:31;;;;;;;1.10;0.83;;;13.80;99.90;;;;;;5033665;28;20236;-70
2024/04/04 12:00:58;;;;;;;4.43;2.00;;;13.90;99.90;;;;;;5032599;28;20767;-73
2024/04/04 12:03:24;;;;;;;2.57;0.80;;;13.90;99.90;;;;;;5034033;28;20943;-71
2024/04/04 12:05:50;;;;;;;2.87;1.00;;;13.90;99.90;;;;;;5032902;28;20446;-73
2024/04/04 12:08:16;;;;;;;1.73;0.77;;;13.90;99.90;;;;;;5033698;28;20783;-73
2024/04/04 12:10:43;;;;;;;1.80;1.00;;;14.00;99.90;;;;;;5033015;28;20437;-71
2024/04/04 12:13:11;;;;;;;3.03;1.10;;;13.90;99.90;;;;;;5032460;28;20723;-70
2024/04/04 12:15:36;;;;;;;1.10;0.53;;;13.90;99.90;;;;;;5032774;28;20429;-69
2024/04/04 12:20:46;;;;;;;4.43;0.90;;;13.90;99.90;;;;;;5032958;28;20229;-71
2024/04/04 12:23:12;;;;;;;1.57;1.00;;;13.90;99.90;;;;;;5032357;28;20457;-70
2024/04/04 12:25:38;;;;;;;4.17;1.17;;;13.90;99.90;;;;;;5065258;28;20818;-68
2024/04/04 12:28:04;;;;;;;2.70;0.80;;;13.90;99.90;;;;;;5033778;28;20648;-74
2024/04/04 12:30:29;;;;;;;1.90;0.70;;;13.90;99.90;;;;;;5063251;28;20208;-72
2024/04/04 12:32:55;;;;;;;1.77;0.53;;;13.80;99.90;;;;;;5032852;28;20194;-71
2024/04/04 12:35:21;;;;;;;2.00;0.73;;;13.80;99.90;;;;;;5034192;28;20269;-69
2024/04/04 12:37:46;;;;;;;2.07;0.57;;;13.80;99.90;;;;;;5033659;28;20758;-75
2024/04/04 12:40:12;;;;;;;2.60;0.60;;;13.70;99.90;;;;;;5033671;28;20213;-69
2024/04/04 12:42:38;;;;;;;2.70;0.70;;;13.70;99.90;;;;;;5032655;28;20188;-75
2024/04/04 12:45:04;;;;;;;2.83;0.60;;;13.60;99.90;;;;;;5034356;28;20186;-70
2024/04/04 12:47:30;;;;;;;2.63;0.60;;;13.60;99.90;;;;;;5033833;28;20197;-72